Time;durP1;ratioP1;P1;durP2;ratioP2;P2;SDS_P1;SDS_P2;PMS_P1;PMS_P2;Temp;Humidity;BMP_temperature;BMP_pressure;BME280_temperature;BME280_humidity;BME280_pressure;Samples;Min_cycle;Max_cycle;Signal;HPM_P1;HPM_P2
2022/08/05 00:00:35;;;;;;;3.37;1.80;;;17.70;99.90;;;;;;6101330;23;20225;-89
2022/08/05 00:03:01;;;;;;;2.17;1.63;;;17.70;99.90;;;;;;6101677;23;20180;-89
2022/08/05 00:05:27;;;;;;;1.47;1.37;;;17.80;99.90;;;;;;6102516;23;20163;-89
2022/08/05 00:07:53;;;;;;;1.60;1.50;;;17.80;99.90;;;;;;6077788;23;20663;-89
2022/08/05 00:10:19;;;;;;;2.83;1.63;;;17.90;99.90;;;;;;6077486;23;20198;-89
2022/08/05 00:12:44;;;;;;;1.80;1.63;;;17.90;99.90;;;;;;6101700;23;20231;-89
2022/08/05 00:15:10;;;;;;;2.77;1.50;;;18.00;99.90;;;;;;6126176;23;20219;-89
2022/08/05 00:17:36;;;;;;;2.40;1.50;;;18.00;99.90;;;;;;6127035;23;20489;-89
2022/08/05 00:20:03;;;;;;;1.70;1.60;;;18.00;99.90;;;;;;6077570;23;20200;-89
2022/08/05 00:22:28;;;;;;;1.63;1.50;;;18.00;99.90;;;;;;6101359;23;20207;-89
2022/08/05 00:24:54;;;;;;;5.03;1.73;;;18.00;99.90;;;;;;6101469;23;20557;-89
2022/08/05 00:27:20;;;;;;;1.50;1.20;;;18.00;99.90;;;;;;6077809;23;20639;-89
2022/08/05 00:29:46;;;;;;;1.73;1.40;;;18.00;99.90;;;;;;6101970;23;20168;-90
2022/08/05 00:32:12;;;;;;;4.77;1.87;;;18.00;99.90;;;;;;6077218;23;20274;-89
2022/08/05 00:34:39;;;;;;;1.73;1.43;;;18.00;99.90;;;;;;6100947;23;20251;-88
2022/08/05 00:37:05;;;;;;;3.63;1.27;;;18.00;99.90;;;;;;6125372;23;20200;-87
2022/08/05 00:39:31;;;;;;;1.40;1.20;;;18.00;99.90;;;;;;6077917;23;20191;-89
2022/08/05 00:41:57;;;;;;;1.97;1.30;;;18.00;99.90;;;;;;6077303;23;20515;-89
2022/08/05 00:44:23;;;;;;;4.13;2.00;;;18.00;99.90;;;;;;6077894;23;20156;-88
2022/08/05 00:46:49;;;;;;;2.07;1.30;;;18.00;99.90;;;;;;6125742;23;20645;-88
2022/08/05 00:49:18;;;;;;;3.13;1.63;;;17.90;99.90;;;;;;6101268;23;20195;-89
2022/08/05 00:51:44;;;;;;;2.07;1.23;;;17.90;99.90;;;;;;6099786;23;20196;-88
2022/08/05 00:54:11;;;;;;;2.73;1.27;;;17.90;99.90;;;;;;6025061;23;20538;-88
2022/08/05 00:56:38;;;;;;;3.20;1.23;;;17.90;99.90;;;;;;6049380;23;20172;-88
2022/08/05 00:59:04;;;;;;;1.13;1.03;;;17.80;99.90;;;;;;6071915;23;20196;-89
2022/08/05 01:01:30;;;;;;;2.93;1.33;;;17.70;99.90;;;;;;6024556;23;20193;-89
2022/08/05 01:03:56;;;;;;;1.40;1.10;;;17.70;99.90;;;;;;6048320;23;20216;-88
2022/08/05 01:06:21;;;;;;;1.27;1.17;;;17.70;99.90;;;;;;6048527;23;20215;-88
2022/08/05 01:08:47;;;;;;;1.30;1.20;;;17.70;99.90;;;;;;6049175;23;20248;-88
2022/08/05 01:11:21;;;;;;;1.33;1.20;;;17.70;99.90;;;;;;6048004;23;20264;-89
2022/08/05 01:14:13;;;;;;;2.60;1.30;;;17.80;99.90;;;;;;6097295;23;20196;-88
2022/08/05 01:16:42;;;;;;;1.20;1.10;;;17.80;99.90;;;;;;6071851;23;20204;-88
2022/08/05 01:19:35;;;;;;;3.00;1.00;;;17.80;99.90;;;;;;6072010;23;20522;-88
2022/08/05 01:22:18;;;;;;;4.60;0.93;;;17.70;99.90;;;;;;6071735;23;20204;-88
2022/08/05 01:25:20;;;;;;;1.40;1.20;;;17.70;99.90;;;;;;6072308;23;20193;-89
2022/08/05 01:28:14;;;;;;;1.20;1.10;;;17.60;99.90;;;;;;6097500;23;20215;-88
2022/08/05 01:30:46;;;;;;;1.47;1.37;;;17.60;99.90;;;;;;6072337;23;20526;-88
2022/08/05 01:33:15;;;;;;;2.33;1.13;;;17.60;99.90;;;;;;6072043;23;20203;-89
2022/08/05 01:35:44;;;;;;;2.30;1.10;;;17.60;99.90;;;;;;6072467;23;20160;-89
2022/08/05 01:38:12;;;;;;;0.87;0.87;;;17.60;99.90;;;;;;6071691;23;20201;-89
2022/08/05 01:40:39;;;;;;;1.30;1.20;;;17.60;99.90;;;;;;6048056;23;20212;-89
2022/08/05 01:43:08;;;;;;;1.13;1.03;;;17.70;99.90;;;;;;6047575;23;20673;-89
2022/08/05 01:45:34;;;;;;;1.00;0.90;;;17.70;99.90;;;;;;6071710;23;20246;-89
2022/08/05 01:48:02;;;;;;;2.07;1.30;;;17.70;99.90;;;;;;6047794;23;20161;-90
2022/08/05 01:50:31;;;;;;;1.63;1.47;;;17.70;99.90;;;;;;6048417;23;20220;-89
2022/08/05 01:53:00;;;;;;;1.17;1.07;;;17.70;99.90;;;;;;6099516;23;20295;-89
2022/08/05 01:55:29;;;;;;;1.23;1.13;;;17.70;99.90;;;;;;6124799;23;20200;-89
2022/08/05 01:57:56;;;;;;;1.63;1.03;;;17.60;99.90;;;;;;6124853;23;20204;-89
2022/08/05 02:00:24;;;;;;;1.60;1.33;;;17.60;99.90;;;;;;6100333;23;20196;-89
2022/08/05 02:03:03;;;;;;;2.40;1.60;;;17.50;99.90;;;;;;6125293;23;20624;-89
2022/08/05 02:05:33;;;;;;;1.40;1.20;;;17.40;99.90;;;;;;6126049;23;20144;-89
2022/08/05 02:07:59;;;;;;;2.57;1.40;;;17.40;99.90;;;;;;6124954;23;20200;-89
2022/08/05 02:10:35;;;;;;;1.33;1.20;;;17.30;99.90;;;;;;6100467;23;20200;-89
2022/08/05 02:13:16;;;;;;;1.73;1.00;;;17.30;99.90;;;;;;6124872;23;20198;-89
2022/08/05 02:16:08;;;;;;;1.20;1.10;;;17.30;99.90;;;;;;6125153;23;20266;-90
2022/08/05 02:18:44;;;;;;;1.53;1.27;;;17.30;99.90;;;;;;6109737;23;20195;-90
2022/08/05 02:21:15;;;;;;;2.67;1.40;;;17.30;99.90;;;;;;6125269;23;20199;-90
2022/08/05 02:23:48;;;;;;;1.60;1.50;;;17.20;99.90;;;;;;6125892;23;20624;-89
2022/08/05 02:26:20;;;;;;;3.40;1.10;;;17.10;99.90;;;;;;6125368;23;20263;-89
2022/08/05 02:28:47;;;;;;;1.20;1.10;;;17.10;99.90;;;;;;6125118;23;20199;-90
2022/08/05 02:31:23;;;;;;;1.83;1.60;;;17.20;99.90;;;;;;6124773;23;20202;-90
2022/08/05 02:33:57;;;;;;;4.70;1.27;;;17.30;99.90;;;;;;6125358;23;20537;-89
2022/08/05 02:36:24;;;;;;;3.23;1.73;;;17.30;99.90;;;;;;6124924;23;20192;-89
2022/08/05 02:38:51;;;;;;;3.43;1.67;;;17.30;99.90;;;;;;6125030;23;20207;-89
2022/08/05 02:41:19;;;;;;;2.00;1.23;;;17.30;99.90;;;;;;6125436;23;20152;-89
2022/08/05 02:43:47;;;;;;;1.60;1.50;;;17.30;99.90;;;;;;6100334;23;20263;-89
2022/08/05 02:46:17;;;;;;;1.20;1.00;;;17.30;99.90;;;;;;6100462;23;20247;-89
2022/08/05 02:48:44;;;;;;;5.30;1.33;;;17.30;99.90;;;;;;6100579;23;20192;-89
2022/08/05 02:51:11;;;;;;;5.43;2.10;;;17.30;99.90;;;;;;6124625;23;20249;-89
2022/08/05 02:53:38;;;;;;;2.10;1.33;;;17.30;99.90;;;;;;6124891;23;20195;-89
2022/08/05 02:56:06;;;;;;;2.67;1.33;;;17.30;99.90;;;;;;6124911;23;20223;-89
2022/08/05 02:58:33;;;;;;;1.47;1.37;;;17.30;99.90;;;;;;6076731;23;20196;-89
2022/08/05 03:01:01;;;;;;;1.73;1.30;;;17.30;99.90;;;;;;6100526;23;20633;-88
2022/08/05 03:03:28;;;;;;;1.67;1.40;;;17.30;99.90;;;;;;6100455;23;20226;-89
2022/08/05 03:05:56;;;;;;;1.20;1.10;;;17.30;99.90;;;;;;6101361;23;20160;-89
2022/08/05 03:08:23;;;;;;;1.47;1.10;;;17.30;99.90;;;;;;6079281;23;20160;-89
2022/08/05 03:10:49;;;;;;;1.10;0.90;;;17.30;99.90;;;;;;6102440;23;20199;-89
2022/08/05 03:13:17;;;;;;;0.83;0.83;;;17.20;99.90;;;;;;6102237;23;20695;-89
2022/08/05 03:15:45;;;;;;;2.33;1.23;;;17.20;99.90;;;;;;6126684;23;20206;-88
2022/08/05 03:18:11;;;;;;;1.77;1.50;;;17.20;99.90;;;;;;6102743;23;20220;-89
2022/08/05 03:20:38;;;;;;;1.30;1.00;;;17.20;99.90;;;;;;6103154;23;20160;-88
2022/08/05 03:23:06;;;;;;;2.83;1.13;;;17.10;99.90;;;;;;6126197;23;20258;-88
2022/08/05 03:25:33;;;;;;;1.73;1.33;;;17.10;99.90;;;;;;6126213;23;20275;-88
2022/08/05 03:28:01;;;;;;;2.57;1.50;;;17.00;99.90;;;;;;6101592;23;20197;-88
2022/08/05 03:30:31;;;;;;;1.87;1.10;;;17.00;99.90;;;;;;6078152;23;20250;-88
2022/08/05 03:32:58;;;;;;;2.13;1.53;;;17.00;99.90;;;;;;6102180;23;20168;-88
2022/08/05 03:35:25;;;;;;;1.97;1.30;;;17.00;99.90;;;;;;6126426;23;20167;-88
2022/08/05 03:37:55;;;;;;;2.80;1.80;;;17.00;99.90;;;;;;6102362;23;20219;-88
2022/08/05 03:40:21;;;;;;;2.47;1.20;;;17.00;99.90;;;;;;6126182;23;20231;-88
2022/08/05 03:42:46;;;;;;;1.83;1.10;;;17.00;99.90;;;;;;6101668;23;20207;-88
2022/08/05 03:45:12;;;;;;;1.57;1.37;;;16.90;99.90;;;;;;6102153;23;20192;-89
2022/08/05 03:47:38;;;;;;;5.90;1.60;;;16.90;99.90;;;;;;6078450;23;20164;-88
2022/08/05 03:50:04;;;;;;;2.07;1.50;;;16.90;99.90;;;;;;6077820;23;20199;-88
2022/08/05 03:52:34;;;;;;;2.50;1.30;;;16.90;99.90;;;;;;6125753;23;20220;-88
2022/08/05 03:55:06;;;;;;;1.83;1.17;;;17.00;99.90;;;;;;6125948;23;20222;-88
2022/08/05 03:57:35;;;;;;;1.70;1.47;;;16.90;99.90;;;;;;6127671;23;20253;-89
2022/08/05 04:00:05;;;;;;;1.43;1.33;;;17.00;99.90;;;;;;6127757;23;20563;-88
2022/08/05 04:02:33;;;;;;;3.50;1.87;;;17.00;99.90;;;;;;6128143;23;20186;-89
2022/08/05 04:05:01;;;;;;;1.57;1.47;;;17.00;99.90;;;;;;6101764;23;20296;-88
2022/08/05 04:07:27;;;;;;;1.60;1.30;;;17.00;99.90;;;;;;6101742;23;20259;-89
2022/08/05 04:09:54;;;;;;;2.60;1.77;;;17.00;99.90;;;;;;6101748;23;20216;-88
2022/08/05 04:12:21;;;;;;;2.47;1.40;;;17.00;99.90;;;;;;6077740;23;20188;-89
2022/08/05 04:14:47;;;;;;;3.00;1.37;;;17.00;99.90;;;;;;6102645;23;20578;-88
2022/08/05 04:17:13;;;;;;;1.73;1.63;;;17.00;99.90;;;;;;6100992;23;20362;-89
2022/08/05 04:19:44;;;;;;;1.97;1.30;;;16.90;99.90;;;;;;6101659;23;20200;-89
2022/08/05 04:22:10;;;;;;;1.83;1.30;;;16.90;99.90;;;;;;6125747;23;20270;-88
2022/08/05 04:24:37;;;;;;;3.00;1.90;;;16.90;99.90;;;;;;6101441;23;20192;-89
2022/08/05 04:27:03;;;;;;;1.33;1.13;;;17.00;99.90;;;;;;6101110;23;20164;-88
2022/08/05 04:29:29;;;;;;;4.50;1.67;;;17.10;99.90;;;;;;6102270;23;20160;-89
2022/08/05 04:31:55;;;;;;;2.03;1.80;;;17.10;99.90;;;;;;6077500;23;20211;-89
2022/08/05 04:34:20;;;;;;;2.60;2.07;;;17.20;99.90;;;;;;6101308;23;20200;-88
2022/08/05 04:36:46;;;;;;;2.23;1.73;;;17.30;99.90;;;;;;6101395;23;20204;-88
2022/08/05 04:39:12;;;;;;;2.93;2.07;;;17.30;99.90;;;;;;6077877;23;20227;-89
2022/08/05 04:41:38;;;;;;;1.77;1.30;;;17.40;99.90;;;;;;6102090;23;20273;-88
2022/08/05 04:44:04;;;;;;;3.00;1.93;;;17.40;99.90;;;;;;6077467;23;20203;-89
2022/08/05 04:46:29;;;;;;;2.17;1.83;;;17.40;99.90;;;;;;6100940;23;20191;-89
2022/08/05 04:48:55;;;;;;;3.40;2.30;;;17.40;99.90;;;;;;6077044;23;20938;-88
2022/08/05 04:51:21;;;;;;;4.93;1.77;;;17.30;99.90;;;;;;6100846;23;20207;-88
2022/08/05 04:53:46;;;;;;;4.60;2.13;;;17.30;99.90;;;;;;6101685;23;20660;-88
2022/08/05 04:56:13;;;;;;;3.23;1.80;;;17.30;99.90;;;;;;6100849;23;20208;-88
2022/08/05 04:58:40;;;;;;;5.30;1.80;;;17.40;99.90;;;;;;6100672;23;20210;-88
2022/08/05 05:01:05;;;;;;;4.80;2.23;;;17.40;99.90;;;;;;6124718;23;20208;-88
2022/08/05 05:03:31;;;;;;;3.87;1.87;;;17.40;99.90;;;;;;6124579;23;20251;-88
2022/08/05 05:05:57;;;;;;;4.47;2.23;;;17.40;99.90;;;;;;6100758;23;20191;-88
2022/08/05 05:08:23;;;;;;;1.93;1.47;;;17.40;99.90;;;;;;6099492;23;20590;-88
2022/08/05 05:10:49;;;;;;;2.23;1.70;;;17.50;99.90;;;;;;6076134;23;20540;-88
2022/08/05 05:13:16;;;;;;;2.13;1.33;;;17.50;99.90;;;;;;6076737;23;20200;-88
2022/08/05 05:15:43;;;;;;;4.20;1.70;;;17.60;99.90;;;;;;6125034;23;20215;-87
2022/08/05 05:18:14;;;;;;;2.27;1.33;;;17.70;99.90;;;;;;6100615;23;20203;-88
2022/08/05 05:20:45;;;;;;;2.00;1.60;;;17.70;99.90;;;;;;6126051;23;20648;-88
2022/08/05 05:23:12;;;;;;;1.70;1.40;;;17.70;99.90;;;;;;6126512;23;20689;-88
2022/08/05 05:25:40;;;;;;;2.00;1.80;;;17.60;99.90;;;;;;6124557;23;21187;-88
2022/08/05 05:28:07;;;;;;;1.93;1.63;;;17.80;99.90;;;;;;6100443;23;20242;-88
2022/08/05 05:30:33;;;;;;;1.90;1.37;;;18.40;99.90;;;;;;6124484;23;20219;-89
2022/08/05 05:33:02;;;;;;;2.47;2.07;;;18.80;99.90;;;;;;6124883;23;20164;-88
2022/08/05 05:35:31;;;;;;;3.67;1.73;;;18.60;99.90;;;;;;6101379;23;20157;-88
2022/08/05 05:37:59;;;;;;;2.03;1.43;;;18.70;99.90;;;;;;6100031;23;20204;-88
2022/08/05 05:40:26;;;;;;;2.90;1.40;;;19.40;99.90;;;;;;6100858;23;20202;-89
2022/08/05 05:42:52;;;;;;;4.37;1.70;;;20.90;99.90;;;;;;6124373;23;20204;-88
2022/08/05 05:45:27;;;;;;;1.60;1.40;;;23.30;99.90;;;;;;6076598;23;20226;-89
2022/08/05 05:47:53;;;;;;;1.43;1.33;;;25.70;99.90;;;;;;6124888;23;20151;-89
2022/08/05 05:50:19;;;;;;;1.67;1.20;;;26.90;99.90;;;;;;6077532;23;20160;-89
2022/08/05 05:52:46;;;;;;;3.50;1.40;;;28.20;99.90;;;;;;6124296;23;20231;-87
2022/08/05 05:55:14;;;;;;;2.90;1.20;;;29.70;99.90;;;;;;6099221;23;20239;-89
2022/08/05 05:57:42;;;;;;;1.90;1.10;;;31.30;99.90;;;;;;6125669;23;20211;-89
2022/08/05 06:00:12;;;;;;;1.33;1.10;;;32.30;99.90;;;;;;6124977;23;20534;-88
2022/08/05 06:02:40;;;;;;;2.05;0.95;;;32.00;99.90;;;;;;6124900;23;20520;-90
2022/08/05 06:05:07;;;;;;;1.00;0.90;;;32.10;99.90;;;;;;6124627;23;20218;-89
2022/08/05 06:07:35;;;;;;;1.38;1.00;;;31.10;99.90;;;;;;6099902;23;20659;-87
2022/08/05 06:10:02;;;;;;;3.70;1.23;;;30.80;99.90;;;;;;6125179;23;20637;-89
2022/08/05 06:12:27;;;;;;;1.80;0.80;;;29.20;99.90;;;;;;6100538;23;20278;-90
2022/08/05 06:14:53;;;;;;;3.45;0.93;;;27.30;99.90;;;;;;6101477;23;20180;-94
2022/08/05 06:17:19;;;;;;;0.82;0.68;;;24.80;99.90;;;;;;6078345;23;20215;-93
2022/08/05 06:19:44;;;;;;;1.65;0.90;;;24.60;99.90;;;;;;6078305;23;20199;-91
2022/08/05 06:22:10;;;;;;;0.60;0.60;;;24.50;99.90;;;;;;6077064;23;20232;-91
2022/08/05 06:24:41;;;;;;;1.65;0.75;;;24.80;99.90;;;;;;6076590;23;20203;-92
2022/08/05 06:27:06;;;;;;;2.00;1.00;;;24.00;99.90;;;;;;6125012;23;20152;-91
2022/08/05 06:29:32;;;;;;;1.00;0.80;;;23.60;99.90;;;;;;6077690;23;20160;-91
2022/08/05 06:31:58;;;;;;;0.90;0.90;;;24.00;99.90;;;;;;6100664;23;20302;-91
2022/08/05 06:34:24;;;;;;;0.60;0.60;;;24.70;99.90;;;;;;6100270;23;20204;-91
2022/08/05 06:36:49;;;;;;;0.80;0.80;;;24.50;99.90;;;;;;6100291;23;20204;-90
2022/08/05 06:39:15;;;;;;;1.88;0.60;;;23.80;99.90;;;;;;6098998;23;20202;-91
2022/08/05 06:41:41;;;;;;;1.40;0.55;;;24.10;99.90;;;;;;6078989;23;20171;-90
2022/08/05 06:44:06;;;;;;;2.53;0.90;;;24.30;99.90;;;;;;6079178;23;20192;-89
2022/08/05 06:46:32;;;;;;;0.57;0.57;;;25.40;99.90;;;;;;6103898;23;20653;-91
2022/08/05 06:48:58;;;;;;;1.38;0.70;;;24.30;99.90;;;;;;6080110;23;20203;-91
2022/08/05 06:51:24;;;;;;;1.05;0.73;;;23.60;99.90;;;;;;6103833;23;20195;-90
2022/08/05 06:53:50;;;;;;;0.75;0.60;;;22.80;99.90;;;;;;6128079;23;20708;-90
2022/08/05 06:56:36;;;;;;;1.05;0.90;;;23.00;99.90;;;;;;5116582;27;20511;-86
2022/08/05 06:59:06;;;;;;;0.65;0.52;;;23.20;99.90;;;;;;5077874;28;20753;-87
2022/08/05 07:01:32;;;;;;;0.77;0.77;;;23.20;99.90;;;;;;5077557;28;20209;-89
2022/08/05 07:03:59;;;;;;;0.68;0.68;;;23.60;99.90;;;;;;5089266;28;20304;-89
2022/08/05 07:06:24;;;;;;;0.82;0.63;;;22.80;99.90;;;;;;5068999;28;20213;-88
2022/08/05 07:08:50;;;;;;;0.82;0.75;;;23.20;99.90;;;;;;5080022;28;20195;-87
2022/08/05 07:11:16;;;;;;;1.40;0.60;;;23.80;99.90;;;;;;5063991;28;20189;-87
2022/08/05 07:19:18;;;;;;;1.40;0.40;;;21.60;99.90;;;;;;5084494;28;20208;-88
2022/08/05 07:21:45;;;;;;;3.20;0.70;;;21.40;99.90;;;;;;5080777;28;20219;-87
2022/08/05 07:24:11;;;;;;;3.10;0.70;;;22.20;99.90;;;;;;5080607;28;20300;-87
2022/08/05 07:26:37;;;;;;;2.10;0.60;;;22.50;99.90;;;;;;5088760;28;20208;-88
2022/08/05 07:29:03;;;;;;;0.40;0.40;;;22.40;99.90;;;;;;5068610;28;20233;-89
2022/08/05 07:31:28;;;;;;;0.43;0.43;;;22.70;99.90;;;;;;5088606;28;20311;-90
2022/08/05 07:33:54;;;;;;;1.20;0.70;;;22.50;99.90;;;;;;5071999;28;20224;-91
2022/08/05 07:36:20;;;;;;;0.45;0.45;;;22.80;99.90;;;;;;5068376;28;20592;-88
2022/08/05 07:38:45;;;;;;;0.50;0.50;;;23.90;99.90;;;;;;5071583;28;20193;-89
2022/08/05 07:41:16;;;;;;;1.70;0.40;;;23.50;99.90;;;;;;5073444;28;20217;-88
2022/08/05 07:43:42;;;;;;;0.50;0.40;;;22.80;99.90;;;;;;5084810;28;20701;-87
2022/08/05 07:46:08;;;;;;;0.88;0.70;;;23.20;99.90;;;;;;5071115;28;20221;-88
2022/08/05 07:48:34;;;;;;;0.60;0.60;;;23.40;99.90;;;;;;5087641;28;20212;-87
2022/08/05 07:51:00;;;;;;;2.05;0.68;;;22.50;99.90;;;;;;5076802;28;20193;-89
2022/08/05 07:53:25;;;;;;;0.60;0.60;;;21.90;99.90;;;;;;5064404;28;20251;-90
2022/08/05 07:55:51;;;;;;;0.80;0.80;;;22.50;99.90;;;;;;5067078;28;20589;-89
2022/08/05 07:58:17;;;;;;;0.50;0.50;;;22.80;99.90;;;;;;5073976;28;20217;-89
2022/08/05 08:00:43;;;;;;;1.38;0.60;;;23.70;99.90;;;;;;5067398;28;20295;-89
2022/08/05 08:03:10;;;;;;;2.67;0.60;;;23.80;99.90;;;;;;5084364;28;20178;-92
2022/08/05 08:05:42;;;;;;;0.60;0.60;;;23.30;99.90;;;;;;5085569;28;20185;-87
2022/08/05 08:08:09;;;;;;;0.60;0.60;;;24.70;99.90;;;;;;5068782;28;20213;-89
2022/08/05 08:10:35;;;;;;;0.60;0.60;;;24.50;99.90;;;;;;5074544;28;20216;-90
2022/08/05 08:13:03;;;;;;;0.47;0.47;;;24.20;99.90;;;;;;5077211;28;20210;-96
2022/08/05 08:15:32;;;;;;;2.03;0.55;;;23.80;99.90;;;;;;5039579;28;20230;-96
2022/08/05 08:17:58;;;;;;;3.70;0.68;;;23.80;99.90;;;;;;5039189;28;20414;-93
2022/08/05 08:20:25;;;;;;;1.70;0.75;;;24.50;99.90;;;;;;5038779;28;20190;-92
2022/08/05 08:22:53;;;;;;;1.10;0.43;;;24.80;99.90;;;;;;5071954;28;20223;-92
2022/08/05 08:25:19;;;;;;;0.60;0.60;;;23.60;99.90;;;;;;5057740;28;20221;-94
2022/08/05 08:27:44;;;;;;;1.30;0.88;;;23.00;99.90;;;;;;5060508;28;20221;-93
2022/08/05 08:30:11;;;;;;;1.15;0.50;;;23.50;99.90;;;;;;5073477;28;20217;-96
2022/08/05 08:32:42;;;;;;;0.55;0.47;;;22.50;99.90;;;;;;5075414;28;20219;-96
2022/08/05 08:35:11;;;;;;;2.05;0.60;;;22.40;99.90;;;;;;5061785;28;20229;-96
2022/08/05 08:37:42;;;;;;;0.30;0.30;;;23.10;99.90;;;;;;5074801;28;20370;-94
2022/08/05 08:40:08;;;;;;;0.50;0.50;;;24.20;99.90;;;;;;5066002;28;20587;-90
2022/08/05 08:42:35;;;;;;;0.40;0.40;;;25.10;99.90;;;;;;5070772;28;20232;-92
2022/08/05 08:45:02;;;;;;;3.00;0.68;;;25.30;99.90;;;;;;5051467;28;20186;-94
2022/08/05 08:47:29;;;;;;;0.75;0.45;;;25.50;99.90;;;;;;5068367;28;20367;-94
2022/08/05 08:49:58;;;;;;;1.20;0.47;;;25.90;99.90;;;;;;5077319;28;20209;-90
2022/08/05 08:52:30;;;;;;;2.17;0.50;;;26.20;99.90;;;;;;5074679;28;20209;-93
2022/08/05 08:55:00;;;;;;;0.57;0.57;;;25.40;99.90;;;;;;5085782;28;20624;-92
2022/08/05 08:57:33;;;;;;;1.65;0.40;;;25.20;99.90;;;;;;5096776;28;20224;-94
2022/08/05 09:00:04;;;;;;;0.47;0.47;;;24.40;99.90;;;;;;5078375;28;20256;-91
2022/08/05 09:02:29;;;;;;;0.50;0.40;;;23.50;99.90;;;;;;5091851;28;20282;-94
2022/08/05 09:04:55;;;;;;;0.68;0.68;;;23.30;99.90;;;;;;5062850;28;20686;-95
2022/08/05 09:07:21;;;;;;;0.35;0.35;;;23.90;99.90;;;;;;5067461;28;20286;-95
2022/08/05 09:09:47;;;;;;;0.77;0.50;;;23.50;99.90;;;;;;5059472;28;20210;-94
2022/08/05 09:12:12;;;;;;;0.43;0.40;;;23.70;99.90;;;;;;5066984;28;20220;-90
2022/08/05 09:14:39;;;;;;;1.35;0.60;;;24.20;99.90;;;;;;5038930;28;20210;-96
2022/08/05 09:17:07;;;;;;;0.50;0.50;;;24.40;99.90;;;;;;5088773;28;20286;-91
2022/08/05 09:19:34;;;;;;;2.95;0.30;;;25.10;99.90;;;;;;5072910;28;20221;-94
2022/08/05 09:22:00;;;;;;;0.32;0.32;;;25.10;99.90;;;;;;5073273;28;20217;-94
2022/08/05 09:24:28;;;;;;;1.48;0.50;;;25.70;99.90;;;;;;5064844;28;20224;-93
2022/08/05 09:26:56;;;;;;;1.92;0.43;;;26.20;99.90;;;;;;5066822;28;20189;-93
2022/08/05 09:29:44;;;;;;;0.60;0.60;;;25.90;99.90;;;;;;5066922;28;20210;-92
2022/08/05 09:32:13;;;;;;;0.57;0.35;;;26.10;99.90;;;;;;5058658;28;20308;-92
2022/08/05 09:34:49;;;;;;;0.47;0.47;;;25.10;99.90;;;;;;5053436;28;20349;-94
2022/08/05 09:37:25;;;;;;;0.50;0.50;;;24.70;99.90;;;;;;5045255;28;20304;-94
2022/08/05 09:39:51;;;;;;;1.10;0.45;;;23.70;99.90;;;;;;5069741;28;20294;-91
2022/08/05 09:42:20;;;;;;;0.63;0.47;;;23.10;99.90;;;;;;5073668;28;20254;-91
2022/08/05 09:44:48;;;;;;;0.70;0.52;;;23.80;99.90;;;;;;5065380;28;20193;-93
2022/08/05 09:47:15;;;;;;;0.88;0.45;;;23.50;99.90;;;;;;5058794;28;20700;-94
2022/08/05 09:49:51;;;;;;;0.40;0.40;;;23.30;99.90;;;;;;5065175;28;20217;-95
2022/08/05 09:52:27;;;;;;;0.40;0.40;;;22.50;99.90;;;;;;5077648;28;20282;-96
2022/08/05 09:54:56;;;;;;;2.05;0.70;;;22.60;99.90;;;;;;5060748;28;20241;-94
2022/08/05 09:57:44;;;;;;;0.40;0.40;;;21.90;99.90;;;;;;5071324;28;20712;-93
2022/08/05 10:00:19;;;;;;;0.98;0.68;;;22.80;99.90;;;;;;5077294;28;20225;-95
2022/08/05 10:02:48;;;;;;;0.93;0.65;;;22.50;99.90;;;;;;5056359;28;20200;-94
2022/08/05 10:05:19;;;;;;;0.57;0.50;;;23.50;99.90;;;;;;5060056;28;20313;-94
2022/08/05 10:07:51;;;;;;;0.47;0.47;;;22.90;99.90;;;;;;5072479;28;20304;-96
2022/08/05 10:10:23;;;;;;;0.50;0.50;;;22.70;99.90;;;;;;5067485;28;20712;-93
2022/08/05 10:12:52;;;;;;;1.02;0.70;;;22.60;99.90;;;;;;5069317;28;20213;-96
2022/08/05 10:15:24;;;;;;;0.75;0.50;;;21.80;99.90;;;;;;5073721;28;20221;-95
2022/08/05 10:18:11;;;;;;;0.55;0.55;;;21.50;99.90;;;;;;5092675;28;20204;-85
2022/08/05 10:20:43;;;;;;;1.00;0.47;;;22.50;99.90;;;;;;5070147;28;20177;-92
2022/08/05 10:23:11;;;;;;;0.77;0.60;;;21.40;99.90;;;;;;5071142;28;20217;-96
2022/08/05 10:25:37;;;;;;;1.25;0.80;;;22.20;99.90;;;;;;5060160;28;20209;-95
2022/08/05 10:28:05;;;;;;;0.40;0.40;;;22.50;99.90;;;;;;5072625;28;20208;-96
2022/08/05 10:30:31;;;;;;;0.60;0.50;;;22.10;99.90;;;;;;5075763;28;20213;-95
2022/08/05 10:32:58;;;;;;;1.25;0.40;;;22.20;99.90;;;;;;5074255;28;20173;-95
2022/08/05 10:35:24;;;;;;;0.50;0.50;;;22.50;99.90;;;;;;5069701;28;20224;-96
2022/08/05 10:37:51;;;;;;;0.70;0.70;;;21.30;99.90;;;;;;5087653;28;20217;-95
2022/08/05 10:40:42;;;;;;;0.68;0.68;;;21.80;99.90;;;;;;5074420;28;20217;-96
2022/08/05 10:43:32;;;;;;;1.05;0.60;;;22.40;99.90;;;;;;5071856;28;20259;-95
2022/08/05 10:46:04;;;;;;;0.40;0.40;;;22.10;99.90;;;;;;5072797;28;20217;-95
2022/08/05 10:48:54;;;;;;;1.60;0.60;;;22.70;99.90;;;;;;5069573;28;20218;-95
2022/08/05 10:51:21;;;;;;;3.35;0.70;;;23.60;99.90;;;;;;5081227;28;20292;-95
2022/08/05 10:53:58;;;;;;;0.75;0.40;;;23.00;99.90;;;;;;5053384;28;20178;-96
2022/08/05 10:56:29;;;;;;;0.98;0.65;;;22.50;99.90;;;;;;5039562;28;20311;-92
2022/08/05 10:58:57;;;;;;;0.43;0.43;;;22.20;99.90;;;;;;5039203;28;20241;-93
2022/08/05 11:01:33;;;;;;;1.35;0.55;;;22.80;99.90;;;;;;5058791;28;20749;-95
2022/08/05 11:04:09;;;;;;;0.40;0.40;;;23.20;99.90;;;;;;5069667;28;20232;-90
2022/08/05 11:06:59;;;;;;;0.50;0.50;;;22.60;99.90;;;;;;5085478;28;20213;-91
2022/08/05 11:09:42;;;;;;;0.50;0.50;;;23.00;99.90;;;;;;5084552;28;20239;-90
2022/08/05 11:12:23;;;;;;;0.50;0.50;;;22.80;99.90;;;;;;5084124;28;20197;-91
2022/08/05 11:15:18;;;;;;;2.83;0.95;;;22.20;99.90;;;;;;5092796;28;20733;-91
2022/08/05 11:17:52;;;;;;;0.45;0.45;;;21.90;99.90;;;;;;5069437;28;20218;-90
2022/08/05 11:20:31;;;;;;;0.50;0.47;;;21.20;99.90;;;;;;5065099;28;20777;-91
2022/08/05 11:22:57;;;;;;;0.40;0.40;;;20.80;99.90;;;;;;5053375;28;20218;-89
2022/08/05 11:25:29;;;;;;;0.40;0.40;;;20.90;99.90;;;;;;5071782;28;20217;-93
2022/08/05 11:28:16;;;;;;;4.22;0.80;;;21.10;99.90;;;;;;5066079;28;20225;-91
2022/08/05 11:30:57;;;;;;;2.03;0.50;;;21.50;99.90;;;;;;5042465;28;20271;-92
2022/08/05 11:33:29;;;;;;;1.58;0.45;;;21.10;99.90;;;;;;5051684;28;20272;-91
2022/08/05 11:35:57;;;;;;;0.47;0.47;;;20.70;99.90;;;;;;5052567;28;20202;-88
2022/08/05 11:38:37;;;;;;;1.03;0.50;;;20.40;99.90;;;;;;5072569;28;20200;-91
2022/08/05 11:41:08;;;;;;;0.43;0.43;;;20.60;99.90;;;;;;5071188;28;20731;-91
2022/08/05 11:43:34;;;;;;;0.30;0.30;;;20.50;99.90;;;;;;5067344;28;20228;-91
2022/08/05 11:46:00;;;;;;;0.50;0.50;;;20.50;99.90;;;;;;5058711;28;20223;-91
2022/08/05 11:48:27;;;;;;;0.40;0.40;;;20.70;99.90;;;;;;5058728;28;20228;-95
2022/08/05 11:50:53;;;;;;;0.30;0.30;;;21.20;99.90;;;;;;5061534;28;20185;-93
2022/08/05 11:53:20;;;;;;;0.40;0.40;;;21.70;99.90;;;;;;5074045;28;20186;-93
2022/08/05 11:55:54;;;;;;;1.03;0.50;;;21.60;99.90;;;;;;5057661;28;20341;-89
2022/08/05 11:58:33;;;;;;;1.23;0.50;;;21.30;99.90;;;;;;5071882;28;20229;-95
2022/08/05 12:01:14;;;;;;;0.50;0.50;;;21.40;99.90;;;;;;5070272;28;20617;-96
2022/08/05 12:03:55;;;;;;;0.30;0.30;;;20.80;99.90;;;;;;5066889;28;20218;-95
2022/08/05 12:06:29;;;;;;;0.50;0.50;;;20.50;99.90;;;;;;5065594;28;20608;-95
2022/08/05 12:09:01;;;;;;;0.40;0.40;;;20.80;99.90;;;;;;5053100;28;20189;-95
2022/08/05 12:11:29;;;;;;;0.30;0.30;;;21.00;99.90;;;;;;5056365;28;20175;-94
2022/08/05 12:14:01;;;;;;;0.40;0.40;;;20.90;99.90;;;;;;5048205;28;20217;-93
2022/08/05 12:16:41;;;;;;;0.83;0.40;;;21.40;99.90;;;;;;5042994;28;20222;-92
2022/08/05 12:19:15;;;;;;;1.40;0.50;;;21.70;99.90;;;;;;5052319;28;20687;-96
2022/08/05 12:21:45;;;;;;;2.50;0.50;;;21.80;99.90;;;;;;5057541;28;20229;-95
2022/08/05 12:24:17;;;;;;;0.40;0.40;;;20.90;99.90;;;;;;5087790;28;20213;-94
2022/08/05 12:26:46;;;;;;;0.53;0.43;;;20.50;99.90;;;;;;5095043;28;20184;-95
2022/08/05 12:29:22;;;;;;;0.63;0.63;;;20.10;99.90;;;;;;5070010;28;20205;-95
2022/08/05 12:31:56;;;;;;;0.30;0.30;;;19.90;99.90;;;;;;5058472;28;20209;-94
2022/08/05 12:34:27;;;;;;;3.50;0.50;;;20.10;99.90;;;;;;5062808;28;20214;-95
2022/08/05 12:37:00;;;;;;;2.23;0.40;;;20.60;99.90;;;;;;5075736;28;20225;-94
2022/08/05 12:39:28;;;;;;;0.53;0.50;;;20.80;99.90;;;;;;5065102;28;20213;-93
2022/08/05 12:41:59;;;;;;;0.50;0.50;;;21.00;99.90;;;;;;5067516;28;20182;-93
2022/08/05 12:44:28;;;;;;;1.70;0.63;;;20.90;99.90;;;;;;5058907;28;20178;-91
2022/08/05 12:46:55;;;;;;;0.43;0.43;;;20.50;99.90;;;;;;5056309;28;20297;-93
2022/08/05 12:49:21;;;;;;;0.30;0.30;;;20.10;99.90;;;;;;5049629;28;20214;-94
2022/08/05 12:51:58;;;;;;;4.33;1.17;;;19.60;99.90;;;;;;5049362;28;20213;-92
2022/08/05 12:54:29;;;;;;;3.53;0.90;;;18.90;99.90;;;;;;5047309;28;20206;-93
2022/08/05 12:57:03;;;;;;;0.90;0.40;;;18.10;99.90;;;;;;5052560;28;20213;-92
2022/08/05 12:59:29;;;;;;;3.53;0.93;;;18.20;99.90;;;;;;5050074;28;20643;-91
2022/08/05 13:01:58;;;;;;;0.40;0.40;;;18.10;99.90;;;;;;5048919;28;20218;-93
2022/08/05 13:04:36;;;;;;;1.13;0.47;;;18.20;99.90;;;;;;5055483;28;20225;-92